Time;durP1;ratioP1;P1;durP2;ratioP2;P2;SDS_P1;SDS_P2;PMS_P1;PMS_P2;Temp;Humidity;BMP_temperature;BMP_pressure;BME280_temperature;BME280_humidity;BME280_pressure;Samples;Min_cycle;Max_cycle;Signal;HPM_P1;HPM_P2
2022/12/25 00:00:31;;;;;;;7.03;6.30;;;;;;;8.69;100.00;95186.84;5076142;28;20451;-72
2022/12/25 00:02:57;;;;;;;8.37;6.90;;;;;;;8.74;100.00;95194.34;5075780;28;20531;-73
2022/12/25 00:05:24;;;;;;;9.40;5.90;;;;;;;8.73;100.00;95195.28;5075752;28;21073;-72
2022/12/25 00:07:52;;;;;;;9.80;5.93;;;;;;;8.74;100.00;95201.34;5076614;28;20498;-74
2022/12/25 00:10:19;;;;;;;7.70;5.87;;;;;;;8.80;100.00;95195.66;5075527;28;20452;-72
2022/12/25 00:12:46;;;;;;;7.73;5.60;;;;;;;8.80;100.00;95190.44;5075566;28;20490;-72
2022/12/25 00:15:13;;;;;;;6.47;5.77;;;;;;;8.81;100.00;95195.56;5075377;28;20940;-73
2022/12/25 00:17:39;;;;;;;7.60;5.60;;;;;;;8.81;100.00;95199.97;5075544;28;20510;-73
2022/12/25 00:20:08;;;;;;;9.77;5.97;;;;;;;8.82;100.00;95199.00;5040118;28;20497;-72
2022/12/25 00:22:35;;;;;;;5.73;5.17;;;;;;;8.78;100.00;95200.19;5076143;28;20452;-72
2022/12/25 00:25:05;;;;;;;7.33;6.20;;;;;;;8.79;100.00;95207.09;5075407;28;20489;-73
2022/12/25 00:27:33;;;;;;;5.97;5.17;;;;;;;8.81;100.00;95211.25;5039911;28;20486;-73
2022/12/25 00:29:59;;;;;;;7.23;5.00;;;;;;;8.83;100.00;95214.59;5039797;28;20484;-72
2022/12/25 00:32:26;;;;;;;8.60;6.90;;;;;;;8.84;100.00;95215.44;5075328;28;20912;-73
2022/12/25 00:34:53;;;;;;;6.47;5.87;;;;;;;8.89;100.00;95226.41;5075132;28;20448;-73
2022/12/25 00:37:20;;;;;;;7.67;5.97;;;;;;;8.90;100.00;95220.22;5075157;28;20449;-73
2022/12/25 00:39:48;;;;;;;6.97;5.60;;;;;;;8.92;100.00;95240.09;5075148;28;20456;-72
2022/12/25 00:42:19;;;;;;;7.90;6.23;;;;;;;8.93;100.00;95225.22;5075393;28;20444;-73
2022/12/25 00:44:46;;;;;;;7.17;5.97;;;;;;;8.95;100.00;95229.41;5075144;28;20492;-73
2022/12/25 00:47:13;;;;;;;6.53;5.97;;;;;;;8.94;100.00;95232.13;5075424;28;20501;-73
2022/12/25 00:49:39;;;;;;;6.23;5.60;;;;;;;8.96;100.00;95225.84;5075119;28;20445;-73
2022/12/25 00:52:07;;;;;;;9.57;5.30;;;;;;;9.00;100.00;95239.56;5075046;28;20524;-72
2022/12/25 00:54:33;;;;;;;7.90;5.80;;;;;;;8.98;100.00;95244.06;5074695;28;20457;-73
2022/12/25 00:57:00;;;;;;;7.77;5.77;;;;;;;8.94;100.00;95242.59;5074842;28;20441;-73
2022/12/25 00:59:31;;;;;;;8.53;6.77;;;;;;;8.91;100.00;95234.97;5074619;28;20502;-73
2022/12/25 01:02:21;;;;;;;6.20;5.60;;;;;;;8.88;100.00;95240.44;5074705;28;20999;-73
2022/12/25 01:04:45;;;;;;;7.20;4.90;;;;;;;8.87;100.00;95236.13;5074529;28;20437;-72
2022/12/25 01:07:12;;;;;;;7.47;6.67;;;;;;;8.91;100.00;95237.59;5073802;28;20478;-72
2022/12/25 01:12:24;;;;;;;5.77;5.00;;;;;;;8.85;100.00;95231.03;5074265;28;20562;-73
2022/12/25 01:14:52;;;;;;;5.80;4.70;;;;;;;8.76;100.00;95223.84;5074281;28;20509;-73
2022/12/25 01:17:19;;;;;;;5.60;5.10;;;;;;;8.81;100.00;95231.34;5074210;28;20445;-72
2022/12/25 01:19:45;;;;;;;5.90;5.40;;;;;;;8.80;100.00;95245.38;5074331;28;20458;-73
2022/12/25 01:22:12;;;;;;;5.93;5.33;;;;;;;8.80;100.00;95240.16;5074212;28;20445;-73
2022/12/25 01:24:39;;;;;;;7.03;4.77;;;;;;;8.79;100.00;95243.72;5074371;28;20876;-73
2022/12/25 01:27:06;;;;;;;5.13;4.63;;;;;;;8.84;100.00;95241.59;5073560;28;20450;-73
2022/12/25 01:29:32;;;;;;;5.20;4.70;;;;;;;8.85;100.00;95236.25;5074385;28;20334;-72
2022/12/25 01:32:01;;;;;;;6.60;5.23;;;;;;;8.87;99.42;95236.97;5074401;28;20506;-72
2022/12/25 01:34:27;;;;;;;6.80;5.23;;;;;;;8.91;99.34;95237.59;5073927;28;20916;-72
2022/12/25 01:36:54;;;;;;;13.00;7.00;;;;;;;8.89;98.55;95229.84;5073674;28;20440;-72
2022/12/25 01:39:21;;;;;;;21.10;7.73;;;;;;;8.94;98.93;95239.97;5073706;28;20456;-72
2022/12/25 01:41:48;;;;;;;14.57;6.23;;;;;;;8.88;98.03;95238.66;5021550;28;20456;-73
2022/12/25 01:44:48;;;;;;;19.63;6.07;;;;;;;8.84;99.06;95246.84;5073729;28;20510;-73
2022/12/25 01:47:17;;;;;;;8.10;6.20;;;;;;;8.89;98.30;95235.06;4991784;28;21034;-72
2022/12/25 01:49:47;;;;;;;5.57;5.10;;;;;;;8.87;99.20;95230.91;4992053;28;20445;-73
2022/12/25 01:52:17;;;;;;;5.70;5.10;;;;;;;8.87;99.08;95238.75;4991746;28;20460;-73
2022/12/25 01:54:48;;;;;;;8.83;5.53;;;;;;;8.82;98.73;95249.56;4992152;28;20931;-72
2022/12/25 01:57:19;;;;;;;6.60;4.97;;;;;;;8.80;99.11;95250.63;4991814;28;20448;-72
2022/12/25 01:59:46;;;;;;;7.20;6.30;;;;;;;8.74;98.69;95253.69;4991757;28;20452;-73
2022/12/25 02:02:13;;;;;;;4.97;4.47;;;;;;;8.71;98.53;95248.69;4991558;28;20893;-73
2022/12/25 02:04:46;;;;;;;6.13;5.53;;;;;;;8.72;99.59;95247.72;4959371;28;20455;-73
2022/12/25 02:07:16;;;;;;;6.97;5.57;;;;;;;8.72;98.75;95252.97;4991362;28;21003;-73
2022/12/25 02:09:43;;;;;;;10.80;4.73;;;;;;;8.68;99.10;95253.19;4991845;28;20457;-73
2022/12/25 02:12:17;;;;;;;5.67;5.03;;;;;;;8.66;99.00;95252.44;4991484;28;20456;-73
2022/12/25 02:14:44;;;;;;;6.10;5.50;;;;;;;8.64;98.44;95262.16;4991546;28;20498;-73
2022/12/25 02:17:21;;;;;;;7.13;5.10;;;;;;;8.56;98.68;95251.41;4991501;28;20548;-73
2022/12/25 02:20:12;;;;;;;4.67;4.27;;;;;;;8.59;97.98;95253.81;4990623;28;20531;-72
2022/12/25 02:22:50;;;;;;;5.00;4.50;;;;;;;8.59;98.19;95253.81;4991315;28;20447;-73
2022/12/25 02:25:33;;;;;;;7.50;6.67;;;;;;;8.57;98.11;95255.72;4995587;28;20539;-72
2022/12/25 02:28:12;;;;;;;7.10;6.30;;;;;;;8.57;97.91;95249.66;5033320;28;20509;-73
2022/12/25 02:30:44;;;;;;;6.67;5.93;;;;;;;8.51;98.15;95255.31;5032993;28;20863;-73
2022/12/25 02:36:04;;;;;;;4.90;4.40;;;;;;;8.47;98.18;95246.84;5032763;28;20436;-73
2022/12/25 02:38:36;;;;;;;6.73;5.17;;;;;;;8.40;98.04;95250.03;5033262;28;20533;-73
2022/12/25 02:41:10;;;;;;;4.50;4.03;;;;;;;8.43;97.18;95249.81;5014959;28;20450;-73
2022/12/25 03:11:45;;;;;;;5.57;4.93;;;;;;;8.46;94.98;95273.13;5009574;28;20530;-73
2022/12/25 03:17:00;;;;;;;6.53;5.17;;;;;;;8.43;94.85;95282.00;5010535;28;20942;-73
2022/12/25 04:38:11;;;;;;;10.80;6.70;;;;;;;7.98;96.43;95333.84;4950146;29;20505;-77
2022/12/25 04:40:38;;;;;;;7.27;4.80;;;;;;;7.95;95.97;95334.06;4950730;29;20485;-77
2022/12/25 04:43:05;;;;;;;6.33;5.30;;;;;;;7.96;96.13;95335.75;4918668;29;20457;-77
2022/12/25 04:45:32;;;;;;;10.20;7.20;;;;;;;7.92;96.35;95342.13;5020260;28;20477;-77
2022/12/25 04:47:59;;;;;;;6.60;5.37;;;;;;;7.93;96.79;95349.00;5041232;28;20461;-77
2022/12/25 04:50:27;;;;;;;7.07;5.40;;;;;;;7.90;96.69;95353.59;5070886;28;20470;-77
2022/12/25 04:52:54;;;;;;;5.50;5.00;;;;;;;7.89;97.53;95357.16;5082262;28;20448;-77
2022/12/25 04:55:21;;;;;;;7.07;5.50;;;;;;;7.86;98.33;95347.75;5060993;28;20450;-77
2022/12/25 04:57:48;;;;;;;4.90;4.40;;;;;;;7.87;98.51;95338.97;5096900;28;20453;-77
2022/12/25 05:00:15;;;;;;;7.13;5.60;;;;;;;7.82;98.72;95351.50;5096366;28;20444;-77
2022/12/25 05:02:42;;;;;;;10.10;5.30;;;;;;;7.80;98.39;95358.59;5077774;28;20453;-77
2022/12/25 05:05:09;;;;;;;10.00;6.27;;;;;;;7.80;99.14;95352.53;5097300;28;20447;-78
2022/12/25 05:07:37;;;;;;;8.57;7.67;;;;;;;7.76;98.79;95363.19;5097493;28;20784;-77
2022/12/25 05:10:04;;;;;;;8.17;5.57;;;;;;;7.74;98.56;95353.78;5097645;28;20450;-77
2022/12/25 05:12:31;;;;;;;8.10;4.67;;;;;;;7.77;98.87;95358.78;5096386;28;20480;-77
2022/12/25 05:14:58;;;;;;;6.07;5.57;;;;;;;7.82;98.51;95363.75;5095256;28;20854;-77
2022/12/25 05:17:24;;;;;;;9.83;7.20;;;;;;;7.84;97.87;95360.09;5096109;28;20618;-80
2022/12/25 05:19:51;;;;;;;9.90;7.50;;;;;;;7.85;97.48;95363.53;5096209;28;20439;-81
2022/12/25 05:22:18;;;;;;;14.20;8.50;;;;;;;7.85;97.53;95356.53;5096651;28;20451;-79
2022/12/25 05:24:46;;;;;;;7.77;6.97;;;;;;;7.83;96.73;95360.19;5096227;28;20836;-78
2022/12/25 05:27:14;;;;;;;9.90;7.70;;;;;;;7.83;96.65;95355.81;5095553;28;20455;-78
2022/12/25 05:29:40;;;;;;;15.50;9.50;;;;;;;7.85;96.08;95359.16;5095564;28;20443;-78
2022/12/25 05:32:07;;;;;;;10.10;6.00;;;;;;;7.85;95.39;95371.38;5095540;28;20446;-78
2022/12/25 05:34:34;;;;;;;6.73;4.87;;;;;;;7.83;95.77;95371.47;5095088;28;21051;-77
2022/12/25 05:37:01;;;;;;;13.67;7.20;;;;;;;7.89;94.83;95372.84;5095305;28;20446;-78
2022/12/25 05:39:27;;;;;;;14.50;6.07;;;;;;;7.90;94.18;95379.75;5095650;28;20851;-77
2022/12/25 05:41:55;;;;;;;15.13;6.57;;;;;;;7.91;93.13;95382.25;5095523;28;20493;-77
2022/12/25 05:44:22;;;;;;;8.60;5.70;;;;;;;7.89;93.05;95383.28;5095373;28;20955;-77
2022/12/25 05:46:49;;;;;;;7.07;4.63;;;;;;;7.93;92.94;95380.38;5095447;28;20451;-77
2022/12/25 05:49:16;;;;;;;7.17;5.20;;;;;;;7.95;92.36;95391.56;5095260;28;20508;-77
2022/12/25 05:51:42;;;;;;;5.93;5.17;;;;;;;8.02;92.55;95389.38;5095493;28;20455;-78
2022/12/25 05:54:09;;;;;;;10.30;4.43;;;;;;;8.07;91.85;95385.50;5075904;28;20488;-78
2022/12/25 05:56:37;;;;;;;8.83;4.67;;;;;;;8.12;91.15;95385.22;5074216;28;20926;-78
2022/12/25 05:59:05;;;;;;;10.30;4.30;;;;;;;8.21;90.22;95388.97;5039437;28;20436;-78
2022/12/25 06:01:32;;;;;;;11.30;5.67;;;;;;;8.24;89.88;95396.59;5074641;28;20451;-77
2022/12/25 06:03:59;;;;;;;6.40;4.23;;;;;;;8.27;90.02;95401.63;5074731;28;20452;-77
2022/12/25 06:06:26;;;;;;;8.30;3.40;;;;;;;8.31;90.07;95392.63;5074940;28;20454;-77
2022/12/25 06:08:53;;;;;;;9.00;5.10;;;;;;;8.40;91.30;95406.91;5075336;28;20933;-79
2022/12/25 06:11:20;;;;;;;8.23;3.93;;;;;;;8.42;89.82;95403.25;5075355;28;20441;-78
2022/12/25 06:13:50;;;;;;;9.83;5.80;;;;;;;8.43;89.19;95412.75;5075764;28;20484;-77
2022/12/25 06:16:19;;;;;;;6.17;5.30;;;;;;;8.54;89.26;95423.31;5080565;28;20439;-79
2022/12/25 06:18:48;;;;;;;8.97;3.40;;;;;;;8.52;88.10;95421.75;5059419;28;20500;-77
2022/12/25 06:21:16;;;;;;;8.20;4.50;;;;;;;8.57;88.66;95432.72;5095657;28;20447;-77
2022/12/25 06:23:43;;;;;;;8.10;5.33;;;;;;;8.58;87.59;95429.19;5092701;28;20856;-78
2022/12/25 06:26:13;;;;;;;8.60;5.50;;;;;;;8.56;87.84;95437.13;5087392;28;20517;-77
2022/12/25 06:28:40;;;;;;;4.10;3.80;;;;;;;8.64;88.81;95444.44;5075482;28;20965;-77
2022/12/25 06:31:07;;;;;;;7.33;4.40;;;;;;;8.69;88.08;95445.00;5082987;28;20947;-78
2022/12/25 06:33:36;;;;;;;4.63;3.73;;;;;;;8.70;87.54;95449.28;5074699;28;20822;-78
2022/12/25 06:36:06;;;;;;;7.20;4.10;;;;;;;8.72;87.55;95451.78;5075362;28;20457;-78
2022/12/25 06:38:32;;;;;;;6.03;4.03;;;;;;;8.73;88.04;95448.25;5078613;28;20472;-77
2022/12/25 06:41:04;;;;;;;9.00;5.97;;;;;;;8.81;87.64;95453.78;5074887;28;20510;-78
2022/12/25 06:43:30;;;;;;;8.47;4.47;;;;;;;8.85;87.42;95458.69;5076992;28;20502;-77
2022/12/25 06:46:01;;;;;;;13.30;5.20;;;;;;;8.92;86.58;95453.84;5095159;28;20456;-78
2022/12/25 06:48:28;;;;;;;8.83;4.90;;;;;;;9.06;93.47;95458.97;5108734;28;20451;-78
2022/12/25 06:50:56;;;;;;;8.17;3.33;;;;;;;9.03;86.44;95471.47;5102359;28;20443;-77
2022/12/25 06:53:23;;;;;;;16.90;7.77;;;;;;;9.06;86.76;95477.31;5104548;28;20462;-77
2022/12/25 06:55:49;;;;;;;15.83;7.77;;;;;;;9.08;86.96;95480.66;5100538;28;20478;-78
2022/12/25 06:58:16;;;;;;;40.67;17.70;;;;;;;9.13;88.50;95488.19;5114532;28;20452;-77
2022/12/25 07:00:43;;;;;;;26.77;11.70;;;;;;;9.12;87.11;95492.59;5115033;28;20505;-78
2022/12/25 07:03:18;;;;;;;54.73;24.97;;;;;;;9.04;88.38;95488.84;5115026;28;20500;-78
2022/12/25 07:05:46;;;;;;;22.10;14.33;;;;;;;9.11;88.70;95493.53;5101376;28;20450;-78
2022/12/25 07:08:14;;;;;;;74.23;33.30;;;;;;;8.97;89.22;95501.50;5113152;28;20436;-78
2022/12/25 07:10:41;;;;;;;69.60;34.80;;;;;;;8.95;90.71;95503.38;5109597;28;20437;-78
2022/12/25 07:13:07;;;;;;;95.47;41.97;;;;;;;8.91;90.88;95507.16;5093807;28;20451;-77
2022/12/25 07:15:34;;;;;;;36.93;18.53;;;;;;;8.88;91.57;95507.34;5098565;28;20489;-79
2022/12/25 07:18:01;;;;;;;25.97;12.20;;;;;;;8.67;91.49;95507.03;5113728;28;20511;-77
2022/12/25 07:20:28;;;;;;;13.63;8.43;;;;;;;8.37;94.14;95500.28;5108833;28;20454;-77
2022/12/25 07:22:55;;;;;;;12.43;7.30;;;;;;;8.44;93.45;95503.34;5114049;28;20450;-79
2022/12/25 07:25:23;;;;;;;8.47;6.83;;;;;;;8.36;94.79;95505.63;5097005;28;20501;-81
2022/12/25 07:27:50;;;;;;;7.73;6.30;;;;;;;8.31;95.29;95511.13;5099825;28;20455;-80
2022/12/25 07:30:17;;;;;;;7.80;7.00;;;;;;;8.52;95.13;95508.06;5058690;28;20450;-81
2022/12/25 07:32:44;;;;;;;9.67;7.90;;;;;;;8.63;95.30;95503.78;5118116;28;20815;-80
2022/12/25 07:35:10;;;;;;;10.73;8.03;;;;;;;8.69;94.01;95506.00;5116834;28;21124;-81
2022/12/25 07:37:37;;;;;;;11.93;7.70;;;;;;;8.81;94.15;95520.03;5114413;28;20476;-79
2022/12/25 07:40:05;;;;;;;7.47;5.13;;;;;;;8.87;92.65;95511.75;5115102;28;20531;-78
2022/12/25 07:42:33;;;;;;;34.77;15.70;;;;;;;8.99;92.49;95512.72;5115258;28;20443;-80
2022/12/25 07:45:00;;;;;;;10.40;7.00;;;;;;;9.14;90.24;95531.75;5062669;28;20518;-80
2022/12/25 07:47:26;;;;;;;5.53;4.37;;;;;;;9.26;90.74;95529.13;5094303;28;20457;-83
2022/12/25 07:49:53;;;;;;;14.97;6.17;;;;;;;10.13;95.84;95533.41;5044795;28;20454;-79
2022/12/25 07:52:20;;;;;;;6.13;4.43;;;;;;;10.06;86.65;95550.53;5073841;28;20461;-77
2022/12/25 07:54:47;;;;;;;6.70;3.27;;;;;;;10.10;87.11;95543.25;5074587;28;20489;-78
2022/12/25 07:57:35;;;;;;;6.27;4.43;;;;;;;10.09;85.74;95558.16;5070795;28;20435;-77
2022/12/25 08:00:02;;;;;;;7.23;4.43;;;;;;;10.12;84.87;95550.09;5071235;28;20573;-77
2022/12/25 08:02:29;;;;;;;4.67;3.50;;;;;;;10.21;87.13;95557.31;5069885;28;20458;-78
2022/12/25 08:04:56;;;;;;;4.67;3.50;;;;;;;10.19;84.71;95558.34;5070435;28;20508;-78
2022/12/25 08:07:23;;;;;;;7.97;5.83;;;;;;;10.15;83.96;95563.00;5066112;28;20426;-78
2022/12/25 08:09:50;;;;;;;8.30;3.87;;;;;;;10.11;84.30;95571.16;5004934;28;20441;-77
2022/12/25 08:12:17;;;;;;;8.83;3.87;;;;;;;10.16;85.61;95575.16;5070261;28;21434;-77
2022/12/25 08:14:45;;;;;;;5.60;4.90;;;;;;;10.21;85.35;95570.44;5072507;28;20824;-79
2022/12/25 08:17:12;;;;;;;6.87;6.23;;;;;;;10.26;84.48;95580.59;5077395;28;20515;-78
2022/12/25 08:19:39;;;;;;;15.93;7.50;;;;;;;10.31;84.09;95578.47;5084932;28;20462;-78
2022/12/25 08:22:09;;;;;;;12.13;7.40;;;;;;;10.35;83.08;95574.66;5081838;28;20463;-78
2022/12/25 08:24:36;;;;;;;8.70;5.77;;;;;;;10.31;83.81;95567.97;5083039;28;20551;-77
2022/12/25 08:27:03;;;;;;;11.30;8.93;;;;;;;10.36;82.97;95560.59;5076913;28;20499;-78
2022/12/25 08:43:54;;;;;;;4.70;4.30;;;;;;;10.71;81.47;95549.31;6242492;22;1360377;-84
2022/12/25 08:46:21;;;;;;;4.50;4.20;;;;;;;10.67;81.66;95546.03;6267335;23;20176;-84
2022/12/25 08:48:49;;;;;;;3.83;3.53;;;;;;;10.73;81.65;95557.91;6258702;23;20410;-85
2022/12/25 08:51:17;;;;;;;4.90;3.80;;;;;;;10.69;81.83;95562.50;6255230;23;20469;-84
2022/12/25 08:53:46;;;;;;;5.07;4.30;;;;;;;10.68;81.42;95554.75;6254583;23;20403;-86
2022/12/25 08:56:13;;;;;;;8.73;6.10;;;;;;;11.14;100.00;95523.25;6255371;23;20460;-85
2022/12/25 08:58:40;;;;;;;111.77;29.20;;;;;;;11.38;86.70;95549.41;6256024;23;20404;-84
2022/12/25 09:01:08;;;;;;;20.70;5.00;;;;;;;11.53;85.51;95550.84;6255429;23;20956;-85
2022/12/25 09:03:35;;;;;;;20.57;8.77;;;;;;;11.91;97.01;95536.53;6254852;23;20453;-83
2022/12/25 09:06:05;;;;;;;4.07;3.67;;;;;;;12.12;81.11;95547.94;6255144;23;20412;-85
2022/12/25 09:08:32;;;;;;;4.90;3.53;;;;;;;11.82;78.04;95553.84;6254990;23;20449;-86
2022/12/25 09:11:02;;;;;;;6.40;3.80;;;;;;;11.58;77.08;95558.38;6255120;23;20408;-87
2022/12/25 09:13:29;;;;;;;4.87;3.37;;;;;;;11.43;79.31;95560.41;6255190;23;20512;-88
2022/12/25 09:15:55;;;;;;;6.63;3.63;;;;;;;11.31;78.11;95566.63;6255829;23;20406;-88
2022/12/25 09:18:23;;;;;;;5.30;4.70;;;;;;;11.23;78.85;95571.59;6254959;23;20794;-89
2022/12/25 09:20:57;;;;;;;9.67;5.20;;;;;;;11.22;78.86;95564.66;6177730;23;20440;-88
2022/12/25 09:23:24;;;;;;;4.77;4.10;;;;;;;11.16;79.12;95555.47;6255433;23;20449;-89
2022/12/25 09:25:51;;;;;;;4.30;3.97;;;;;;;11.10;79.04;95558.59;6255174;23;20952;-88
2022/12/25 09:28:17;;;;;;;7.20;5.30;;;;;;;11.02;78.25;95527.66;6203016;23;20403;-87
2022/12/25 09:30:44;;;;;;;6.80;3.60;;;;;;;11.07;78.07;95546.53;6254935;23;20400;-86
2022/12/25 09:33:11;;;;;;;9.27;6.30;;;;;;;11.11;77.63;95558.47;6255929;23;20450;-84
2022/12/25 09:35:39;;;;;;;9.60;5.87;;;;;;;11.14;78.78;95566.09;6255491;23;20411;-89
2022/12/25 09:38:06;;;;;;;4.90;3.80;;;;;;;11.22;78.73;95549.75;6255211;23;20415;-84
2022/12/25 09:40:33;;;;;;;6.43;3.50;;;;;;;11.22;77.47;95564.66;6255328;23;20414;-85
2022/12/25 09:43:01;;;;;;;7.23;3.97;;;;;;;11.29;76.89;95563.28;6253457;23;20490;-85
2022/12/25 09:45:32;;;;;;;7.47;3.90;;;;;;;11.34;76.13;95558.50;6247937;23;20871;-85
2022/12/25 09:47:58;;;;;;;4.40;3.70;;;;;;;11.40;76.04;95556.22;6248999;23;20454;-85
2022/12/25 09:50:38;;;;;;;9.70;3.47;;;;;;;11.47;75.70;95554.78;6248041;23;20408;-85
2022/12/25 09:53:09;;;;;;;5.70;3.27;;;;;;;11.54;74.28;95557.75;6175876;23;20780;-85
2022/12/25 09:55:43;;;;;;;7.87;3.30;;;;;;;11.60;73.43;95559.09;6250000;23;20463;-86
2022/12/25 09:58:12;;;;;;;3.73;3.40;;;;;;;11.65;74.53;95560.41;6248230;23;20471;-84
2022/12/25 10:00:42;;;;;;;8.80;4.07;;;;;;;11.74;73.33;95562.31;6248577;23;21036;-86
2022/12/25 10:03:33;;;;;;;8.60;3.20;;;;;;;11.78;73.46;95553.25;6247766;23;20405;-86
2022/12/25 10:06:18;;;;;;;11.90;4.03;;;;;;;11.86;74.88;95549.19;6155711;23;20474;-84
2022/12/25 10:09:11;;;;;;;9.73;4.57;;;;;;;11.92;72.57;95549.53;6010809;23;20495;-85
2022/12/25 10:11:55;;;;;;;5.13;3.87;;;;;;;11.99;71.92;95549.88;6011152;23;20471;-85
2022/12/25 10:14:30;;;;;;;10.03;6.10;;;;;;;12.06;72.73;95545.81;6011529;23;20416;-86
2022/12/25 10:17:16;;;;;;;8.83;5.87;;;;;;;12.09;71.56;95545.56;5966605;23;20417;-87
2022/12/25 10:19:48;;;;;;;11.40;7.57;;;;;;;12.15;71.28;95546.88;6010413;23;20416;-86
2022/12/25 10:22:20;;;;;;;8.53;3.93;;;;;;;12.19;70.40;95545.66;6009475;23;20801;-86
2022/12/25 10:24:51;;;;;;;7.63;5.43;;;;;;;12.24;71.24;95543.50;6009400;23;20508;-89
2022/12/25 10:27:22;;;;;;;5.63;4.77;;;;;;;12.30;70.23;95546.47;6013547;23;20469;-89
2022/12/25 10:29:53;;;;;;;10.80;4.60;;;;;;;12.31;71.50;95544.66;6012092;23;20408;-93
2022/12/25 10:32:20;;;;;;;4.67;4.20;;;;;;;12.38;70.67;95553.72;6011587;23;20483;-88
2022/12/25 10:34:48;;;;;;;3.67;2.60;;;;;;;12.43;68.61;95548.06;6011325;23;20415;-89
2022/12/25 10:37:16;;;;;;;2.90;2.60;;;;;;;12.37;68.93;95550.25;6012286;23;20456;-91
2022/12/25 10:39:44;;;;;;;5.73;4.03;;;;;;;12.32;68.94;95548.97;6011048;23;20473;-89
2022/12/25 10:42:23;;;;;;;6.10;3.00;;;;;;;12.35;69.14;95546.06;6032563;23;20437;-87
2022/12/25 10:44:58;;;;;;;3.00;2.77;;;;;;;12.35;70.74;95541.66;6128063;23;20519;-86
2022/12/25 10:47:27;;;;;;;9.70;5.20;;;;;;;12.41;69.98;95549.03;6250119;23;20409;-89
2022/12/25 10:49:55;;;;;;;4.40;3.23;;;;;;;12.47;70.02;95555.63;6253684;22;20501;-92
2022/12/25 10:52:25;;;;;;;3.37;2.90;;;;;;;12.41;69.35;95549.03;6280792;22;20439;-90
2022/12/25 10:54:52;;;;;;;7.53;4.93;;;;;;;12.45;71.71;95544.38;6279858;22;20411;-84
2022/12/25 10:57:21;;;;;;;7.70;4.90;;;;;;;12.47;69.92;95541.63;6280327;22;20399;-89
2022/12/25 10:59:49;;;;;;;4.73;3.30;;;;;;;12.48;69.11;95549.41;6199452;22;20400;-86
2022/12/25 11:02:21;;;;;;;5.70;3.00;;;;;;;12.51;71.34;95543.88;6202404;22;20408;-85
2022/12/25 11:04:49;;;;;;;4.13;2.50;;;;;;;12.49;69.54;95543.19;6280166;22;20400;-90
2022/12/25 11:07:24;;;;;;;5.00;2.80;;;;;;;12.54;72.02;95534.91;6279989;22;20408;-87
2022/12/25 11:09:52;;;;;;;3.70;2.80;;;;;;;12.51;69.11;95535.16;6278612;22;20388;-88
2022/12/25 11:12:25;;;;;;;6.83;3.60;;;;;;;12.53;70.60;95541.97;6279824;22;20519;-87
2022/12/25 11:14:54;;;;;;;9.77;5.90;;;;;;;12.53;69.97;95551.66;6278268;22;20389;-87
2022/12/25 11:17:23;;;;;;;3.93;3.37;;;;;;;12.61;74.00;95538.69;6279558;22;20406;-87
2022/12/25 11:19:54;;;;;;;8.03;4.27;;;;;;;12.67;72.00;95546.91;6279487;22;20442;-86
2022/12/25 11:22:21;;;;;;;4.10;3.07;;;;;;;12.73;70.35;95539.50;6278654;22;20758;-87
2022/12/25 11:24:48;;;;;;;3.17;2.87;;;;;;;12.69;70.52;95544.16;6279471;22;20462;-88
2022/12/25 11:27:24;;;;;;;4.67;3.20;;;;;;;12.76;70.30;95545.34;6280208;22;20397;-88
2022/12/25 11:29:55;;;;;;;3.03;2.83;;;;;;;12.81;72.34;95544.94;6280174;22;20392;-88
2022/12/25 11:32:28;;;;;;;4.45;3.40;;;;;;;12.82;70.88;95542.19;6280094;22;20687;-86
2022/12/25 11:34:56;;;;;;;5.90;3.37;;;;;;;12.83;69.95;95546.47;6278665;22;20162;-91
2022/12/25 11:37:30;;;;;;;3.73;2.57;;;;;;;12.83;69.79;95546.47;6279749;22;20847;-84
2022/12/25 11:39:57;;;;;;;14.00;7.00;;;;;;;12.87;70.13;95549.69;6277991;22;20392;-87
2022/12/25 11:45:52;;;;;;;6.27;3.00;;;;;;;12.93;69.78;95546.53;6278447;22;20421;-86
2022/12/25 11:48:25;;;;;;;6.43;3.03;;;;;;;12.95;68.57;95547.25;6278681;22;20446;-88
2022/12/25 11:50:55;;;;;;;9.37;3.80;;;;;;;13.00;68.24;95548.53;6278046;22;20446;-87
2022/12/25 11:53:29;;;;;;;7.70;3.67;;;;;;;13.02;69.02;95536.09;6277930;22;20439;-86
2022/12/25 11:56:01;;;;;;;5.70;3.57;;;;;;;13.14;68.43;95543.91;6278535;22;20403;-86
2022/12/25 11:58:32;;;;;;;8.80;3.93;;;;;;;13.22;69.01;95544.13;6278790;22;20435;-84
2022/12/25 12:01:05;;;;;;;3.40;3.10;;;;;;;13.21;68.84;95547.72;6277893;22;20430;-83
2022/12/25 12:03:35;;;;;;;8.03;5.03;;;;;;;13.16;68.52;95547.25;6278181;22;20451;-85
2022/12/25 12:06:07;;;;;;;4.67;2.70;;;;;;;13.17;68.41;95543.66;6278091;22;20396;-84
2022/12/25 12:08:35;;;;;;;5.47;3.03;;;;;;;13.12;68.56;95549.31;6279503;22;20405;-83
2022/12/25 12:11:17;;;;;;;5.20;3.10;;;;;;;13.06;68.08;95543.72;6279485;22;20459;-86
2022/12/25 12:13:57;;;;;;;10.20;4.40;;;;;;;12.99;67.97;95541.59;6279045;22;20489;-84
2022/12/25 12:16:25;;;;;;;5.67;3.80;;;;;;;12.93;67.37;95536.00;6278520;22;20412;-85
2022/12/25 12:18:52;;;;;;;9.47;6.07;;;;;;;12.91;68.25;95538.78;6281714;22;20393;-85
2022/12/25 12:21:22;;;;;;;9.40;5.33;;;;;;;12.90;67.90;95546.81;6280095;22;20398;-85
2022/12/25 12:23:53;;;;;;;3.97;3.20;;;;;;;12.86;69.14;95545.41;6280128;22;20398;-85
2022/12/25 12:26:21;;;;;;;7.07;4.67;;;;;;;12.81;69.22;95543.16;6281767;22;20488;-85
2022/12/25 12:28:50;;;;;;;15.60;7.17;;;;;;;13.49;93.58;95533.88;6280134;22;20395;-85
2022/12/25 12:31:17;;;;;;;4.20;3.40;;;;;;;13.58;73.95;95543.59;6278734;22;20411;-83
2022/12/25 12:33:53;;;;;;;14.43;4.93;;;;;;;13.86;71.36;95562.31;6279622;22;20447;-83
2022/12/25 12:36:25;;;;;;;5.20;3.30;;;;;;;14.92;76.60;95551.13;6278929;22;20427;-85
2022/12/25 12:38:53;;;;;;;7.50;4.97;;;;;;;14.54;63.44;95558.91;6278616;22;20404;-86
2022/12/25 12:41:21;;;;;;;16.43;7.40;;;;;;;14.35;64.03;95569.41;6277792;22;20458;-85
2022/12/25 12:43:54;;;;;;;9.07;6.33;;;;;;;14.03;64.70;95563.50;6277115;22;20411;-85
2022/12/25 12:46:23;;;;;;;9.37;6.87;;;;;;;13.72;65.29;95563.53;6277462;22;20420;-85
2022/12/25 12:48:53;;;;;;;9.00;3.80;;;;;;;13.53;66.04;95559.00;6277801;22;20455;-85
2022/12/25 12:51:30;;;;;;;10.00;5.47;;;;;;;13.39;65.85;95553.25;6277857;22;20435;-84
2022/12/25 12:54:19;;;;;;;10.47;7.60;;;;;;;13.27;68.04;95560.38;6277321;22;20444;-85
2022/12/25 12:56:56;;;;;;;5.37;3.73;;;;;;;13.23;66.60;95561.59;6278019;22;20883;-85
2022/12/25 12:59:24;;;;;;;8.40;4.23;;;;;;;13.08;66.58;95574.25;6278774;22;20450;-84
2022/12/25 13:02:01;;;;;;;6.70;5.37;;;;;;;12.99;71.85;95567.09;6224671;22;20771;-84
2022/12/25 13:04:56;;;;;;;7.83;4.77;;;;;;;12.90;69.32;95575.78;6277186;22;20890;-85
2022/12/25 13:07:42;;;;;;;9.97;4.10;;;;;;;13.73;100.00;95557.28;6278295;22;20405;-82
2022/12/25 13:10:21;;;;;;;8.10;3.90;;;;;;;14.45;85.37;95569.44;6276540;22;20408;-84
2022/12/25 13:12:53;;;;;;;7.13;4.03;;;;;;;14.94;68.97;95584.34;6276544;22;20444;-84
2022/12/25 13:15:22;;;;;;;20.67;7.70;;;;;;;14.54;64.65;95571.28;6277585;22;20408;-86
2022/12/25 13:17:49;;;;;;;15.43;10.37;;;;;;;14.17;63.94;95571.88;6223840;22;20417;-87
2022/12/25 13:20:24;;;;;;;31.33;17.07;;;;;;;14.01;65.19;95578.63;6279560;22;20409;-87
2022/12/25 13:22:51;;;;;;;14.30;6.37;;;;;;;13.77;64.87;95566.59;6227811;22;20404;-85
2022/12/25 13:25:24;;;;;;;5.67;4.30;;;;;;;13.48;64.87;95563.84;6280215;22;20761;-86
2022/12/25 13:27:56;;;;;;;7.50;5.53;;;;;;;13.40;66.32;95576.84;6279727;22;20396;-86
2022/12/25 13:30:24;;;;;;;4.33;3.93;;;;;;;13.25;65.79;95562.31;6279775;22;20400;-87
2022/12/25 13:32:51;;;;;;;12.07;4.80;;;;;;;13.11;66.53;95567.88;6279155;22;20447;-87
2022/12/25 13:35:22;;;;;;;5.60;3.77;;;;;;;12.91;66.07;95559.00;6279272;22;20409;-86
2022/12/25 13:37:49;;;;;;;7.27;4.83;;;;;;;12.89;67.88;95561.78;6279484;22;20408;-88
2022/12/25 13:40:24;;;;;;;6.57;4.30;;;;;;;12.80;66.35;95566.97;6279813;22;20415;-86
2022/12/25 13:42:54;;;;;;;5.63;4.10;;;;;;;12.71;66.20;95558.00;6279687;22;20426;-87
2022/12/25 13:45:23;;;;;;;5.17;3.80;;;;;;;12.66;67.40;95561.03;6280411;22;20878;-86
2022/12/25 13:47:50;;;;;;;8.73;5.33;;;;;;;12.56;66.90;95565.41;6280089;22;20871;-86
2022/12/25 13:50:24;;;;;;;10.00;4.50;;;;;;;12.50;67.98;95565.91;6281146;22;20520;-87
2022/12/25 13:52:52;;;;;;;8.93;4.50;;;;;;;12.51;67.35;95561.47;6279838;22;20747;-88
2022/12/25 13:55:21;;;;;;;11.63;5.13;;;;;;;12.50;67.94;95565.91;6278658;22;20895;-86
2022/12/25 13:57:52;;;;;;;9.93;5.80;;;;;;;12.50;68.14;95565.06;6278723;22;20457;-87